Driel, Netherlands
Current Conditions -  °F | °C
As of 2:25 AM on Tuesday 21 Oct 2014 (Local Time) from EHDL Reporting Station
Overcast Overcast  
Wind Chill: 54°   Ceiling: 7900
Heat Index: 54°   Visibility: 6mi
Dew Point: 52°   Wind: 12mph
Humidity: 94%   Direction: 210°SSW
Pressure: 29.85"   Gusts: NA
Location:  51.96°N, 5.81°E
Report Text: EHDL 210025Z AUTO 21010KT 9999 FEW012 OVC079 12/11 Q1011 BLU
Loading
Personal Weather Stations






























Interactive Weather Map
Tropical Storm Tracking
New forecast layout! Learn more

10-Day Weather Forecast

Advertisements
Track Severe Weather on mobile